Pagina principale
METAR-TAF:

METAR-TAF

Aeroporti :

Aeroporto di Chambéry Savoia

Chambery / Aix-Les-Bains, Francia

latitudine: 45-39N, longitudine: 005-53E, altezza: 235 m

Osservazione

Il bollettino è stato emesso 31 minuti fa, alle 23:30 UTC
Vento calmo
Temperature 6°C
Umidità 81%
Pressione 1022 hPa
Visibilità 10 km o più
nessuna nube inferiore a 1500 m e nessun cumulonembo

METAR: LFLB 242330Z AUTO 00000KT CAVOK 06/03 Q1022

Ora: 01:01 (00:01 UTC)

Previsione

Il bollettino è stato emesso 7 ore e 1 minuti fa, alle 17:00 UTC
Previsione valida dal 24 alle 18 UTC al 25 alle 18 UTC
Vento 6 kt da nord
Visibilità 10 km o più
nessuna nube inferiore a 1500 m e nessun cumulonembo
Evoluzione graduale
dal 25 alle 09 UTC al 25 alle 12 UTC
Vento 12 kt da nord
Probabilità 40% :
Temporaneamente
dal 25 alle 13 UTC al 25 alle 18 UTC
Vento 15 kt da nord con raffiche fino a 25 kt

TAF: LFLB 241700Z 2418/2518 36006KT CAVOK BECMG 2509/2512 36012KT PROB40 TEMPO 2513/2518 36015G25KT

Osservazioni e previsioni meteorologiche di più di 4000 aeroporti (messaggi METAR e TAF).

Le stazioni disponibili sono rappresentate dai dischi gialli e rossi sulla carta.

Puntare il mouse per vedere il nome della stazione.

Clicca sopra per visualizzare le osservazioni e previsioni meteorologiche.

Per cambiare la mappa : fare clic sui pulsanti verdi con una croce nera per ingrandire, il pulsante verde con un trattino per diminuire, o sulla freccia verde per le mappe adiacenti.


METAR-TAF: